Terminal Aerodrome Forecast
Issued by NWS Amarillo, TX

Home | Current Version | Previous Version | Text Only | Print | Product List | Glossary On
Versions: 1 2 3 4 5 6 7 8 9 10 11 12 13 14 15 16 17 18 19
931
FTUS44 KAMA 251238 AAA
TAFDHT
TAF AMD
KDHT 251238Z 2513/2612 02008KT P6SM BKN010
     FM251900 10009KT P6SM SCT040 OVC120 PROB30 2522/2604 5SM TSRA
      OVC030CB
     FM260600 VRB06KT P6SM SCT100 BKN300=

USA.gov is the U.S. government's official web portal to all federal, state and local government web resources and services.